Time;durP1;ratioP1;P1;durP2;ratioP2;P2;SDS_P1;SDS_P2;PMS_P1;PMS_P2;Temp;Humidity;BMP_temperature;BMP_pressure;BME280_temperature;BME280_humidity;BME280_pressure;Samples;Min_cycle;Max_cycle;Signal;HPM_P1;HPM_P2
2021/07/31 00:01:05;;;;;;;0.40;0.40;;;17.80;99.90;;;;;;5033255;28;20485;-85
2021/07/31 00:03:32;;;;;;;0.40;0.40;;;17.80;99.90;;;;;;5033577;28;20454;-85
2021/07/31 00:05:59;;;;;;;0.50;0.50;;;17.80;99.90;;;;;;5033176;28;20462;-85
2021/07/31 00:08:28;;;;;;;0.40;0.40;;;17.80;99.90;;;;;;5033161;28;20473;-85
2021/07/31 00:10:55;;;;;;;0.40;0.40;;;17.80;99.90;;;;;;5033416;28;20454;-85
2021/07/31 00:13:22;;;;;;;0.43;0.43;;;17.80;99.90;;;;;;5033482;28;20460;-85
2021/07/31 00:15:49;;;;;;;0.40;0.40;;;17.80;99.90;;;;;;5033466;28;20489;-85
2021/07/31 00:18:17;;;;;;;0.40;0.40;;;17.80;99.90;;;;;;5033347;28;20480;-85
2021/07/31 00:20:44;;;;;;;0.30;0.30;;;17.80;99.90;;;;;;5033273;28;20465;-85
2021/07/31 00:23:10;;;;;;;0.40;0.40;;;17.80;99.90;;;;;;5033368;28;20957;-85
2021/07/31 00:25:37;;;;;;;0.40;0.40;;;17.80;99.90;;;;;;5033363;28;20826;-85
2021/07/31 00:28:07;;;;;;;0.37;0.37;;;17.70;99.90;;;;;;5033304;28;20512;-86
2021/07/31 00:30:34;;;;;;;0.40;0.40;;;17.70;99.90;;;;;;5033290;28;20823;-85
2021/07/31 00:33:01;;;;;;;0.37;0.37;;;17.70;99.90;;;;;;5033124;28;20477;-86
2021/07/31 00:35:29;;;;;;;0.30;0.30;;;17.70;99.90;;;;;;5033300;28;20830;-86
2021/07/31 00:37:55;;;;;;;0.40;0.40;;;17.70;99.90;;;;;;5033107;28;20485;-86
2021/07/31 00:40:22;;;;;;;0.53;0.53;;;17.60;99.90;;;;;;5032959;28;20473;-86
2021/07/31 00:42:49;;;;;;;0.60;0.60;;;17.60;99.90;;;;;;5032882;28;20464;-85
2021/07/31 00:45:16;;;;;;;0.40;0.40;;;17.60;99.90;;;;;;5033293;28;20488;-86
2021/07/31 00:47:44;;;;;;;0.40;0.40;;;17.60;99.90;;;;;;5033028;28;20488;-86
2021/07/31 00:50:11;;;;;;;0.30;0.30;;;17.60;99.90;;;;;;5033214;28;20480;-86
2021/07/31 00:52:41;;;;;;;0.40;0.40;;;17.60;99.90;;;;;;5033112;28;20466;-86
2021/07/31 00:55:11;;;;;;;0.40;0.40;;;17.50;99.90;;;;;;5032777;28;20954;-85
2021/07/31 00:57:40;;;;;;;0.30;0.30;;;17.50;99.90;;;;;;5033387;28;20490;-88
2021/07/31 01:00:08;;;;;;;0.40;0.40;;;17.50;99.90;;;;;;5032915;28;20481;-86
2021/07/31 01:02:34;;;;;;;0.53;0.53;;;17.50;99.90;;;;;;5032668;28;20465;-86
2021/07/31 01:08:25;;;;;;;0.40;0.40;;;17.50;99.90;;;;;;5074660;23;20622;-86
2021/07/31 01:11:19;;;;;;;0.40;0.40;;;17.40;99.90;;;;;;5033664;28;20469;-86
2021/07/31 02:21:44;;;;;;;0.30;0.30;;;17.50;99.90;;;;;;5014317;28;20537;-85
2021/07/31 02:24:11;;;;;;;0.40;0.40;;;17.50;99.90;;;;;;5015738;28;20466;-85
2021/07/31 02:26:38;;;;;;;0.40;0.40;;;17.50;99.90;;;;;;5016882;28;20465;-85
2021/07/31 02:29:04;;;;;;;0.40;0.40;;;17.50;99.90;;;;;;5035985;28;20457;-85
2021/07/31 02:31:31;;;;;;;0.47;0.47;;;17.50;99.90;;;;;;5035994;28;20473;-85
2021/07/31 02:33:58;;;;;;;0.30;0.30;;;17.50;99.90;;;;;;5034928;28;20473;-85
2021/07/31 02:36:25;;;;;;;0.30;0.30;;;17.50;99.90;;;;;;5035154;28;20493;-85
2021/07/31 02:38:53;;;;;;;0.80;0.80;;;17.50;99.90;;;;;;5035040;28;20481;-85
2021/07/31 02:41:20;;;;;;;0.30;0.30;;;17.50;99.90;;;;;;5035151;28;20452;-85
2021/07/31 02:43:47;;;;;;;0.30;0.30;;;17.50;99.90;;;;;;5035101;28;20465;-85
2021/07/31 02:46:13;;;;;;;0.30;0.30;;;17.60;99.90;;;;;;5035005;28;20962;-85
2021/07/31 02:48:40;;;;;;;0.40;0.40;;;17.60;99.90;;;;;;5034873;28;20490;-85
2021/07/31 02:51:09;;;;;;;0.30;0.30;;;17.60;99.90;;;;;;5034862;28;20463;-86
2021/07/31 02:53:36;;;;;;;0.30;0.30;;;17.50;99.90;;;;;;5034861;28;20461;-85
2021/07/31 02:56:04;;;;;;;0.30;0.30;;;17.60;99.90;;;;;;5034686;28;20478;-85
2021/07/31 02:58:31;;;;;;;0.30;0.30;;;17.60;99.90;;;;;;5034720;28;20492;-85
2021/07/31 03:01:02;;;;;;;0.40;0.40;;;17.60;99.90;;;;;;5034387;28;20461;-85
2021/07/31 03:03:29;;;;;;;0.30;0.30;;;17.70;99.90;;;;;;5035217;28;20463;-85
2021/07/31 03:05:56;;;;;;;0.30;0.30;;;17.60;99.90;;;;;;5034296;28;20464;-85
2021/07/31 03:08:23;;;;;;;0.30;0.30;;;17.60;99.90;;;;;;5034554;28;21005;-85
2021/07/31 03:10:54;;;;;;;0.30;0.30;;;17.60;99.90;;;;;;5034703;28;20993;-85
2021/07/31 03:13:22;;;;;;;0.40;0.40;;;17.70;99.90;;;;;;5034475;28;20517;-85
2021/07/31 03:15:49;;;;;;;0.30;0.30;;;17.70;99.90;;;;;;5034410;28;20469;-85
2021/07/31 03:18:16;;;;;;;0.40;0.40;;;17.80;99.90;;;;;;5033951;28;20489;-85
2021/07/31 03:20:46;;;;;;;0.30;0.30;;;17.80;99.90;;;;;;5034081;28;20469;-85
2021/07/31 03:23:14;;;;;;;0.30;0.30;;;17.80;99.90;;;;;;5034305;28;20477;-85
2021/07/31 03:25:41;;;;;;;0.30;0.30;;;17.90;99.90;;;;;;5033973;28;20499;-85
2021/07/31 03:28:07;;;;;;;0.30;0.30;;;17.80;99.90;;;;;;5034134;28;20486;-85
2021/07/31 03:30:40;;;;;;;0.30;0.30;;;17.90;99.90;;;;;;5034152;28;20460;-85
2021/07/31 03:33:06;;;;;;;0.30;0.30;;;17.80;99.90;;;;;;5034143;28;20456;-85
2021/07/31 03:35:33;;;;;;;0.30;0.30;;;17.90;99.90;;;;;;5034169;28;20462;-84
2021/07/31 03:38:00;;;;;;;0.40;0.40;;;17.80;99.90;;;;;;5033712;28;20493;-84
2021/07/31 03:40:27;;;;;;;0.43;0.40;;;17.80;99.90;;;;;;5033661;28;20458;-85
2021/07/31 03:42:53;;;;;;;0.40;0.40;;;17.80;99.90;;;;;;5034000;28;20461;-85
2021/07/31 03:45:20;;;;;;;0.30;0.30;;;17.80;99.90;;;;;;5033538;28;20967;-85
2021/07/31 03:47:48;;;;;;;0.30;0.30;;;17.80;99.90;;;;;;5033778;28;20485;-84
2021/07/31 03:50:15;;;;;;;0.30;0.30;;;17.80;99.90;;;;;;5033584;28;20462;-84
2021/07/31 03:52:42;;;;;;;0.30;0.30;;;17.70;99.90;;;;;;5033790;28;20474;-85
2021/07/31 03:55:09;;;;;;;0.40;0.40;;;17.70;99.90;;;;;;5033241;28;20473;-85
2021/07/31 03:57:36;;;;;;;0.30;0.30;;;17.60;99.90;;;;;;5033343;28;20865;-85
2021/07/31 04:00:04;;;;;;;0.30;0.30;;;17.60;99.90;;;;;;5033698;28;20471;-84
2021/07/31 04:02:31;;;;;;;0.30;0.30;;;17.60;99.90;;;;;;5033630;28;20462;-84
2021/07/31 04:05:00;;;;;;;0.30;0.30;;;17.60;99.90;;;;;;5033459;28;20458;-85
2021/07/31 04:07:27;;;;;;;0.30;0.30;;;17.50;99.90;;;;;;5033212;28;20481;-85
2021/07/31 04:09:53;;;;;;;0.30;0.30;;;17.50;99.90;;;;;;5033671;28;20465;-85
2021/07/31 04:12:20;;;;;;;0.40;0.40;;;17.50;99.90;;;;;;5033510;28;20466;-85
2021/07/31 04:14:47;;;;;;;0.40;0.40;;;17.40;99.90;;;;;;5033427;28;20469;-85
2021/07/31 04:17:14;;;;;;;0.40;0.40;;;17.30;99.90;;;;;;5033235;28;20498;-85
2021/07/31 04:19:41;;;;;;;0.50;0.50;;;17.10;99.90;;;;;;5033415;28;20473;-86
2021/07/31 04:22:09;;;;;;;0.40;0.40;;;16.90;99.90;;;;;;5034145;28;20823;-86
2021/07/31 04:24:36;;;;;;;0.50;0.50;;;16.90;99.90;;;;;;5033442;28;20812;-85
2021/07/31 04:27:04;;;;;;;0.40;0.40;;;16.80;99.90;;;;;;5032983;28;20517;-85
2021/07/31 04:29:31;;;;;;;0.30;0.30;;;16.60;99.90;;;;;;5033048;28;20468;-85
2021/07/31 04:31:58;;;;;;;0.40;0.40;;;16.60;99.90;;;;;;5033064;28;21011;-86
2021/07/31 04:34:27;;;;;;;0.43;0.43;;;16.50;99.90;;;;;;5033259;28;20469;-86
2021/07/31 04:36:54;;;;;;;3.00;0.50;;;16.50;99.90;;;;;;5033102;28;20493;-86
2021/07/31 04:39:22;;;;;;;0.30;0.30;;;16.50;99.90;;;;;;5032898;28;20460;-85
2021/07/31 04:41:49;;;;;;;0.40;0.40;;;16.50;99.90;;;;;;5032885;28;20468;-85
2021/07/31 04:44:16;;;;;;;0.40;0.40;;;16.50;99.90;;;;;;5033205;28;20471;-85
2021/07/31 04:46:43;;;;;;;0.50;0.50;;;16.50;99.90;;;;;;5033072;28;20463;-85
2021/07/31 04:49:09;;;;;;;0.40;0.40;;;16.50;99.90;;;;;;5033121;28;20475;-85
2021/07/31 04:51:36;;;;;;;0.40;0.40;;;16.50;99.90;;;;;;5033156;28;20467;-85
2021/07/31 04:54:03;;;;;;;0.40;0.40;;;16.60;99.90;;;;;;5033704;28;20460;-85
2021/07/31 04:56:31;;;;;;;0.30;0.30;;;16.60;99.90;;;;;;5032644;28;20457;-84
2021/07/31 04:58:57;;;;;;;0.30;0.30;;;16.60;99.90;;;;;;5033122;28;20968;-85
2021/07/31 05:01:24;;;;;;;0.50;0.50;;;16.60;99.90;;;;;;5033097;28;20465;-85
2021/07/31 05:03:51;;;;;;;0.30;0.30;;;16.60;99.90;;;;;;5033038;28;20471;-85
2021/07/31 05:06:18;;;;;;;1.73;0.30;;;16.70;99.90;;;;;;5033587;28;20469;-85
2021/07/31 05:08:44;;;;;;;0.40;0.40;;;16.70;99.90;;;;;;5036753;28;20478;-85
2021/07/31 05:11:11;;;;;;;0.40;0.40;;;16.70;99.90;;;;;;5036776;28;20471;-85
2021/07/31 05:13:39;;;;;;;0.47;0.47;;;16.70;99.90;;;;;;5036786;28;20464;-85
2021/07/31 05:16:06;;;;;;;0.30;0.30;;;16.70;99.90;;;;;;5036684;28;20466;-85
2021/07/31 05:18:33;;;;;;;0.40;0.40;;;16.70;99.90;;;;;;5036770;28;20492;-84
2021/07/31 05:21:00;;;;;;;0.63;0.30;;;16.70;99.90;;;;;;5037123;28;20472;-85
2021/07/31 05:23:27;;;;;;;0.40;0.40;;;16.70;99.90;;;;;;5036795;28;20981;-85
2021/07/31 05:25:53;;;;;;;0.30;0.30;;;16.70;99.90;;;;;;5036294;28;20464;-84
2021/07/31 05:28:20;;;;;;;0.30;0.30;;;16.70;99.90;;;;;;5036121;28;20492;-85
2021/07/31 05:30:48;;;;;;;0.33;0.33;;;16.60;99.90;;;;;;5036591;28;20448;-85
2021/07/31 05:33:15;;;;;;;0.50;0.50;;;16.60;99.90;;;;;;5036388;28;20475;-85
2021/07/31 05:35:42;;;;;;;0.30;0.30;;;16.50;99.90;;;;;;5036517;28;20472;-85
2021/07/31 05:38:09;;;;;;;0.30;0.30;;;16.50;99.90;;;;;;5036413;28;20495;-85
2021/07/31 05:40:35;;;;;;;1.23;0.50;;;16.50;99.90;;;;;;5036261;28;20468;-86
2021/07/31 05:43:02;;;;;;;0.30;0.30;;;16.40;99.90;;;;;;5036265;28;20460;-86
2021/07/31 05:45:29;;;;;;;0.30;0.30;;;16.40;99.90;;;;;;5036269;28;20619;-85
2021/07/31 05:47:58;;;;;;;0.40;0.40;;;16.40;99.90;;;;;;5036044;28;20487;-86
2021/07/31 05:50:25;;;;;;;0.30;0.30;;;16.50;99.90;;;;;;5036010;28;20584;-86
2021/07/31 05:52:52;;;;;;;0.30;0.30;;;16.50;99.90;;;;;;5036176;28;20539;-86
2021/07/31 05:55:19;;;;;;;0.40;0.40;;;16.60;99.90;;;;;;5035998;28;20833;-86
2021/07/31 05:57:46;;;;;;;0.30;0.30;;;16.60;99.90;;;;;;5035704;28;20499;-86
2021/07/31 06:00:14;;;;;;;0.30;0.30;;;16.60;99.90;;;;;;5035905;28;20470;-86
2021/07/31 06:02:41;;;;;;;0.73;0.73;;;16.60;99.90;;;;;;5035934;28;20453;-86
2021/07/31 06:05:11;;;;;;;0.30;0.30;;;16.70;99.90;;;;;;5036219;28;20456;-86
2021/07/31 06:07:38;;;;;;;0.40;0.40;;;16.80;99.90;;;;;;5036616;28;20513;-86
2021/07/31 06:10:05;;;;;;;0.30;0.30;;;16.80;99.90;;;;;;5035388;28;20495;-86
2021/07/31 06:12:32;;;;;;;0.30;0.30;;;16.90;99.90;;;;;;5035705;28;20469;-86
2021/07/31 06:14:59;;;;;;;0.30;0.30;;;17.00;99.90;;;;;;5036062;28;20946;-87
2021/07/31 06:17:25;;;;;;;0.30;0.30;;;17.00;99.90;;;;;;5035148;28;20500;-86
2021/07/31 06:19:52;;;;;;;0.30;0.30;;;17.10;99.90;;;;;;5035455;28;20909;-86
2021/07/31 06:22:20;;;;;;;0.47;0.47;;;17.20;99.90;;;;;;5035096;28;20476;-84
2021/07/31 06:24:47;;;;;;;0.30;0.30;;;17.20;99.90;;;;;;5035349;28;20464;-86
2021/07/31 06:27:14;;;;;;;1.03;0.37;;;17.30;99.90;;;;;;5035359;28;20481;-84
2021/07/31 06:29:41;;;;;;;0.20;0.20;;;17.40;99.90;;;;;;5035345;28;20469;-86
2021/07/31 06:32:08;;;;;;;0.27;0.27;;;17.40;99.90;;;;;;5036185;28;20462;-85
2021/07/31 06:34:35;;;;;;;0.37;0.37;;;17.50;99.90;;;;;;5036884;28;20460;-84
2021/07/31 06:55:43;;;;;;;0.37;0.37;;;17.90;99.90;;;;;;5036254;28;20463;-87
2021/07/31 06:58:10;;;;;;;0.33;0.33;;;18.00;99.90;;;;;;5035816;28;20485;-88
2021/07/31 07:00:39;;;;;;;0.37;0.30;;;18.10;99.90;;;;;;5035428;28;20473;-88
2021/07/31 07:03:06;;;;;;;0.30;0.30;;;18.10;99.90;;;;;;5035433;28;20463;-87
2021/07/31 07:05:34;;;;;;;0.30;0.30;;;18.10;99.60;;;;;;5034783;28;20489;-85
2021/07/31 07:08:01;;;;;;;0.30;0.30;;;18.20;99.70;;;;;;5034529;28;20488;-84
2021/07/31 07:10:27;;;;;;;0.30;0.30;;;18.20;99.80;;;;;;5034284;28;20453;-83
2021/07/31 07:12:55;;;;;;;0.20;0.20;;;18.30;99.90;;;;;;5034812;28;20470;-82
2021/07/31 07:15:22;;;;;;;0.37;0.37;;;18.30;99.90;;;;;;5034669;28;20463;-83
2021/07/31 07:17:49;;;;;;;0.20;0.20;;;18.40;99.50;;;;;;5035138;28;20489;-81
2021/07/31 07:20:16;;;;;;;0.37;0.37;;;18.60;99.30;;;;;;5035174;28;20816;-80
2021/07/31 07:22:42;;;;;;;0.23;0.23;;;18.60;99.10;;;;;;5035651;28;20467;-80
2021/07/31 07:25:10;;;;;;;0.30;0.30;;;18.70;99.30;;;;;;5034984;28;20455;-86
2021/07/31 07:27:37;;;;;;;0.30;0.30;;;18.70;99.00;;;;;;5035417;28;20560;-84
2021/07/31 07:30:06;;;;;;;0.33;0.30;;;18.80;99.40;;;;;;5033461;28;20476;-85
2021/07/31 07:32:35;;;;;;;0.30;0.30;;;18.90;98.80;;;;;;5034272;28;20468;-84
2021/07/31 07:35:02;;;;;;;0.30;0.30;;;19.00;99.10;;;;;;5034052;28;20475;-83
2021/07/31 07:37:28;;;;;;;0.30;0.30;;;19.20;99.90;;;;;;5033648;28;20488;-84
2021/07/31 07:39:55;;;;;;;0.27;0.27;;;19.20;98.70;;;;;;5034296;28;20472;-82
2021/07/31 07:42:22;;;;;;;0.40;0.40;;;19.30;99.10;;;;;;5034023;28;20464;-83
2021/07/31 07:44:49;;;;;;;0.30;0.30;;;19.30;99.70;;;;;;5033781;28;20466;-83
2021/07/31 07:47:18;;;;;;;0.30;0.30;;;19.30;98.80;;;;;;5034115;28;20487;-89
2021/07/31 07:49:45;;;;;;;0.20;0.20;;;19.20;98.80;;;;;;5034373;28;20471;-84
2021/07/31 07:52:12;;;;;;;0.33;0.30;;;19.30;98.80;;;;;;5033804;28;20475;-84
2021/07/31 07:54:39;;;;;;;0.23;0.23;;;19.50;99.40;;;;;;5033707;28;20463;-84
2021/07/31 07:57:06;;;;;;;0.40;0.40;;;19.50;98.30;;;;;;5033191;28;20500;-83
2021/07/31 07:59:35;;;;;;;0.77;0.50;;;19.40;98.50;;;;;;5033444;28;20488;-84
2021/07/31 08:02:03;;;;;;;0.30;0.30;;;19.60;99.50;;;;;;5033603;28;20452;-89
2021/07/31 08:04:34;;;;;;;0.30;0.30;;;19.80;98.60;;;;;;5033351;28;20471;-88
2021/07/31 08:07:02;;;;;;;0.30;0.30;;;19.60;97.90;;;;;;5033837;28;20488;-85
2021/07/31 08:09:29;;;;;;;0.50;0.40;;;19.50;99.40;;;;;;5033537;28;20459;-81
2021/07/31 08:11:55;;;;;;;0.30;0.30;;;19.30;98.60;;;;;;5033567;28;20464;-81
2021/07/31 08:14:22;;;;;;;0.37;0.37;;;19.20;98.00;;;;;;5033564;28;20459;-81
2021/07/31 08:16:49;;;;;;;0.40;0.40;;;19.20;97.60;;;;;;5033351;28;20480;-85
2021/07/31 08:19:15;;;;;;;0.30;0.30;;;19.10;97.70;;;;;;5033244;28;20502;-83
2021/07/31 08:21:44;;;;;;;0.37;0.37;;;19.10;98.00;;;;;;5032954;28;20467;-82
2021/07/31 08:24:10;;;;;;;0.40;0.40;;;19.30;97.60;;;;;;5033291;28;20460;-82
2021/07/31 08:26:37;;;;;;;0.40;0.40;;;19.30;97.90;;;;;;5033245;28;20930;-81
2021/07/31 08:29:04;;;;;;;0.30;0.30;;;19.50;98.20;;;;;;5033239;28;20471;-85
2021/07/31 08:31:30;;;;;;;0.30;0.30;;;19.70;97.30;;;;;;5033064;28;20977;-84
2021/07/31 08:33:57;;;;;;;0.73;0.40;;;19.80;97.40;;;;;;5033216;28;20468;-84
2021/07/31 08:36:24;;;;;;;0.30;0.30;;;19.80;96.60;;;;;;5033178;28;20979;-82
2021/07/31 08:38:52;;;;;;;0.30;0.30;;;19.80;97.80;;;;;;5033056;28;20502;-82
2021/07/31 08:41:20;;;;;;;0.33;0.33;;;19.80;97.20;;;;;;5035583;28;20961;-81
2021/07/31 08:43:47;;;;;;;0.43;0.43;;;20.00;97.20;;;;;;5037264;28;20460;-81
2021/07/31 08:46:14;;;;;;;0.30;0.30;;;20.10;97.40;;;;;;5036891;28;20467;-82
2021/07/31 08:48:42;;;;;;;0.30;0.30;;;20.20;97.20;;;;;;5037074;28;20480;-82
2021/07/31 08:51:10;;;;;;;0.30;0.30;;;20.40;97.80;;;;;;5037083;28;20461;-81
2021/07/31 08:53:37;;;;;;;0.40;0.40;;;20.30;95.40;;;;;;5037175;28;20853;-83
2021/07/31 08:56:05;;;;;;;0.40;0.40;;;20.40;95.20;;;;;;5036784;28;20538;-83
2021/07/31 08:58:32;;;;;;;0.30;0.30;;;20.60;97.20;;;;;;5036829;28;20496;-81
2021/07/31 09:00:59;;;;;;;0.30;0.30;;;20.70;97.10;;;;;;5036876;28;20957;-82
2021/07/31 09:03:26;;;;;;;0.40;0.40;;;20.50;95.20;;;;;;5036460;28;20464;-81
2021/07/31 09:05:53;;;;;;;0.20;0.20;;;20.60;95.60;;;;;;5037113;28;20464;-80
2021/07/31 09:08:20;;;;;;;0.30;0.30;;;20.70;96.30;;;;;;5036463;28;20484;-80
2021/07/31 09:10:47;;;;;;;0.33;0.33;;;20.80;96.40;;;;;;5036733;28;20472;-84
2021/07/31 09:13:17;;;;;;;0.43;0.40;;;20.90;94.70;;;;;;5038773;28;20452;-91
2021/07/31 09:15:47;;;;;;;0.50;0.50;;;20.80;94.90;;;;;;5040801;28;20464;-93
2021/07/31 09:18:25;;;;;;;0.30;0.30;;;20.60;94.50;;;;;;5039012;28;20484;-89
2021/07/31 09:21:00;;;;;;;0.20;0.20;;;20.10;93.60;;;;;;5037410;28;20460;-92
2021/07/31 09:23:44;;;;;;;0.30;0.30;;;20.30;94.30;;;;;;5039175;28;20466;-90
2021/07/31 09:26:11;;;;;;;0.23;0.23;;;20.40;94.40;;;;;;5040012;28;20460;-90
2021/07/31 09:28:42;;;;;;;0.30;0.30;;;20.60;95.60;;;;;;5040133;28;20485;-92
2021/07/31 09:31:10;;;;;;;0.83;0.33;;;20.50;94.40;;;;;;5038787;28;20452;-89
2021/07/31 09:33:42;;;;;;;0.30;0.30;;;20.60;93.80;;;;;;5038535;28;20472;-91
2021/07/31 09:36:09;;;;;;;0.30;0.30;;;20.70;94.60;;;;;;5040401;28;20456;-91
2021/07/31 09:38:37;;;;;;;0.30;0.30;;;20.70;94.50;;;;;;5038068;28;20484;-91
2021/07/31 09:41:33;;;;;;;0.20;0.20;;;20.70;93.50;;;;;;5048215;28;20457;-89
2021/07/31 09:44:12;;;;;;;0.30;0.30;;;20.60;94.60;;;;;;4997354;28;20463;-94
2021/07/31 09:46:50;;;;;;;0.30;0.30;;;20.60;94.10;;;;;;5041849;28;20452;-93
2021/07/31 09:49:40;;;;;;;0.33;0.33;;;20.70;92.80;;;;;;5044969;28;20463;-93
2021/07/31 09:52:17;;;;;;;0.30;0.30;;;20.90;93.30;;;;;;5039061;28;20483;-92
2021/07/31 09:54:46;;;;;;;0.30;0.30;;;21.10;93.10;;;;;;5042290;28;20534;-91
2021/07/31 09:57:14;;;;;;;0.30;0.30;;;21.00;92.70;;;;;;5035867;28;20543;-86
2021/07/31 09:59:46;;;;;;;0.30;0.30;;;21.30;91.20;;;;;;5036432;28;21023;-86
2021/07/31 10:02:27;;;;;;;0.30;0.30;;;21.30;92.00;;;;;;5035856;28;20467;-86
2021/07/31 10:04:54;;;;;;;0.23;0.23;;;21.20;88.70;;;;;;5037651;28;20463;-88
2021/07/31 10:07:21;;;;;;;0.20;0.20;;;21.20;92.50;;;;;;5037007;28;20487;-89
2021/07/31 10:09:50;;;;;;;0.30;0.30;;;21.10;92.10;;;;;;5036087;28;20460;-87
2021/07/31 10:12:24;;;;;;;0.20;0.20;;;21.10;92.20;;;;;;5036190;28;20462;-87
2021/07/31 10:14:53;;;;;;;0.30;0.30;;;21.20;92.10;;;;;;5036893;28;20487;-86
2021/07/31 10:17:27;;;;;;;0.30;0.30;;;21.20;90.90;;;;;;5036493;28;20484;-85
2021/07/31 10:19:54;;;;;;;0.40;0.40;;;21.30;90.80;;;;;;5035753;28;20859;-81
2021/07/31 10:22:41;;;;;;;0.30;0.30;;;21.40;91.60;;;;;;5035954;28;20472;-83
2021/07/31 10:25:09;;;;;;;0.30;0.30;;;21.30;91.20;;;;;;5036242;28;20808;-82
2021/07/31 10:27:36;;;;;;;1.90;0.30;;;21.30;89.10;;;;;;5035965;28;20486;-82
2021/07/31 10:30:23;;;;;;;0.27;0.27;;;21.40;88.80;;;;;;5035782;28;20852;-82
2021/07/31 10:32:50;;;;;;;0.23;0.23;;;21.60;88.80;;;;;;5035660;28;20456;-84
2021/07/31 10:35:27;;;;;;;0.30;0.30;;;21.60;90.00;;;;;;5035807;28;20462;-81
2021/07/31 10:37:54;;;;;;;0.20;0.20;;;21.60;90.30;;;;;;5035495;28;20491;-85
2021/07/31 10:40:48;;;;;;;0.60;0.30;;;21.60;89.40;;;;;;5035010;28;20492;-83
2021/07/31 10:43:16;;;;;;;0.30;0.30;;;21.60;89.50;;;;;;4988620;28;20477;-82
2021/07/31 10:45:44;;;;;;;0.27;0.27;;;21.70;90.00;;;;;;5035057;28;20511;-83
2021/07/31 10:48:28;;;;;;;0.30;0.30;;;21.80;90.40;;;;;;5035213;28;20847;-86
2021/07/31 10:50:56;;;;;;;0.53;0.53;;;21.80;90.60;;;;;;5034906;28;20445;-84
2021/07/31 10:53:23;;;;;;;0.33;0.33;;;21.90;88.30;;;;;;5034939;28;20475;-86
2021/07/31 10:56:03;;;;;;;0.20;0.20;;;22.00;89.00;;;;;;5034908;28;20480;-83
2021/07/31 10:58:31;;;;;;;0.30;0.30;;;22.00;85.70;;;;;;5034589;28;20491;-85
2021/07/31 11:01:22;;;;;;;0.43;0.43;;;22.00;86.80;;;;;;5034834;28;20876;-84
2021/07/31 11:03:49;;;;;;;0.30;0.30;;;22.10;86.50;;;;;;5033338;28;20463;-84
2021/07/31 11:06:16;;;;;;;0.30;0.30;;;22.30;90.60;;;;;;5034654;28;20928;-85
2021/07/31 11:09:13;;;;;;;0.40;0.40;;;22.40;84.50;;;;;;5034621;28;20990;-84
2021/07/31 11:11:41;;;;;;;0.43;0.43;;;22.60;88.10;;;;;;5032327;28;20468;-88
2021/07/31 11:14:08;;;;;;;0.20;0.20;;;22.60;85.90;;;;;;5035722;28;20472;-86
2021/07/31 11:16:36;;;;;;;0.37;0.37;;;22.60;85.90;;;;;;5035088;28;20814;-83
2021/07/31 11:19:03;;;;;;;0.30;0.30;;;22.40;85.30;;;;;;5034298;28;20851;-84
2021/07/31 11:21:32;;;;;;;0.40;0.40;;;22.30;82.90;;;;;;5034705;28;20468;-83
2021/07/31 11:24:01;;;;;;;0.20;0.20;;;22.50;85.80;;;;;;5034375;28;20958;-84
2021/07/31 11:26:37;;;;;;;0.20;0.20;;;22.80;87.00;;;;;;5034297;28;20474;-83
2021/07/31 11:29:09;;;;;;;0.30;0.30;;;22.70;83.50;;;;;;5034182;28;20856;-84
2021/07/31 11:31:38;;;;;;;0.30;0.30;;;22.80;81.50;;;;;;5033955;28;20449;-86
2021/07/31 11:34:08;;;;;;;0.30;0.30;;;22.80;79.10;;;;;;5034334;28;20516;-85
2021/07/31 11:36:37;;;;;;;0.23;0.23;;;23.00;82.90;;;;;;5034097;28;20468;-85
2021/07/31 11:39:05;;;;;;;0.20;0.20;;;23.00;81.10;;;;;;5034160;28;20485;-86
2021/07/31 11:41:38;;;;;;;0.30;0.30;;;23.20;84.70;;;;;;5034487;28;20465;-83
2021/07/31 11:44:05;;;;;;;0.30;0.30;;;23.40;81.80;;;;;;5034400;28;20452;-85
2021/07/31 11:46:35;;;;;;;0.27;0.27;;;23.50;83.40;;;;;;5034339;28;20460;-86
2021/07/31 11:49:05;;;;;;;0.40;0.40;;;23.30;79.20;;;;;;5035145;28;20460;-88
2021/07/31 11:51:33;;;;;;;0.30;0.30;;;23.30;83.60;;;;;;5034377;28;20627;-87
2021/07/31 11:54:08;;;;;;;0.27;0.27;;;23.40;83.80;;;;;;5033887;28;20461;-86
2021/07/31 11:56:35;;;;;;;0.30;0.30;;;23.50;82.60;;;;;;5033742;28;20476;-85
2021/07/31 11:59:05;;;;;;;0.30;0.30;;;23.50;81.60;;;;;;5033884;28;20499;-85
2021/07/31 12:01:32;;;;;;;2.07;0.40;;;23.30;80.00;;;;;;5033805;28;20496;-84
2021/07/31 12:03:59;;;;;;;0.30;0.30;;;23.20;81.50;;;;;;5033621;28;20487;-85
2021/07/31 12:06:46;;;;;;;0.20;0.20;;;23.30;83.70;;;;;;5033420;28;20466;-86
2021/07/31 12:09:23;;;;;;;0.30;0.30;;;23.30;78.70;;;;;;5033799;28;20885;-88
2021/07/31 12:11:52;;;;;;;0.20;0.20;;;23.20;77.80;;;;;;5033796;28;20456;-87
2021/07/31 12:14:39;;;;;;;0.30;0.30;;;23.10;80.70;;;;;;5033501;28;20831;-83
2021/07/31 12:17:27;;;;;;;0.30;0.30;;;22.90;78.60;;;;;;5033484;28;20476;-85
2021/07/31 12:19:55;;;;;;;0.27;0.27;;;22.70;81.60;;;;;;5033964;28;21055;-84
2021/07/31 12:22:25;;;;;;;0.20;0.20;;;22.70;82.60;;;;;;5033348;28;20463;-84
2021/07/31 12:25:13;;;;;;;0.20;0.20;;;22.60;81.30;;;;;;5032915;28;20960;-83
2021/07/31 12:28:06;;;;;;;0.20;0.20;;;22.50;78.50;;;;;;5033341;28;20550;-84
2021/07/31 12:30:40;;;;;;;0.20;0.20;;;22.40;78.00;;;;;;5015236;28;21000;-85
2021/07/31 12:33:16;;;;;;;0.30;0.30;;;22.50;81.20;;;;;;5033671;28;20860;-84
2021/07/31 12:35:47;;;;;;;0.30;0.30;;;22.70;79.60;;;;;;5033376;28;20499;-82
2021/07/31 12:38:18;;;;;;;0.20;0.20;;;22.90;78.00;;;;;;5033160;28;20481;-83
2021/07/31 12:40:45;;;;;;;0.30;0.30;;;22.90;77.20;;;;;;5033556;28;20474;-84
2021/07/31 12:43:14;;;;;;;0.30;0.30;;;22.80;78.40;;;;;;5033384;28;20804;-82
2021/07/31 12:45:43;;;;;;;0.20;0.20;;;22.80;79.60;;;;;;5033142;28;20470;-83
2021/07/31 12:48:10;;;;;;;0.30;0.30;;;22.80;79.30;;;;;;5033442;28;20521;-86
2021/07/31 12:50:38;;;;;;;0.20;0.20;;;22.70;77.10;;;;;;5032877;28;20464;-85
2021/07/31 12:53:05;;;;;;;0.30;0.30;;;22.80;77.10;;;;;;5033234;28;21052;-86
2021/07/31 12:55:33;;;;;;;0.30;0.30;;;22.90;80.30;;;;;;5033106;28;20461;-85
2021/07/31 12:57:59;;;;;;;0.20;0.20;;;23.20;86.50;;;;;;5033022;28;20486;-86
2021/07/31 13:00:26;;;;;;;0.23;0.23;;;23.00;78.60;;;;;;5032893;28;20472;-85
2021/07/31 13:02:54;;;;;;;0.30;0.30;;;22.90;81.90;;;;;;5032932;28;20463;-86
2021/07/31 13:05:23;;;;;;;0.30;0.30;;;22.70;80.10;;;;;;5032922;28;20487;-85
2021/07/31 13:07:52;;;;;;;1.13;0.40;;;22.70;81.70;;;;;;5032754;28;20484;-86
2021/07/31 13:10:19;;;;;;;0.40;0.40;;;22.80;79.20;;;;;;5032849;28;20466;-85
2021/07/31 13:12:47;;;;;;;0.23;0.23;;;22.70;78.60;;;;;;5032851;28;20466;-83
2021/07/31 13:15:14;;;;;;;0.20;0.20;;;22.80;79.00;;;;;;5032461;28;20463;-84
2021/07/31 13:17:41;;;;;;;0.27;0.27;;;22.80;82.30;;;;;;5032348;28;20487;-84
2021/07/31 13:20:09;;;;;;;0.30;0.30;;;22.70;77.90;;;;;;5032619;28;20484;-84
2021/07/31 13:22:36;;;;;;;0.27;0.27;;;22.70;81.50;;;;;;5032496;28;20468;-85
2021/07/31 13:25:03;;;;;;;0.30;0.30;;;22.50;79.90;;;;;;5032824;28;20847;-84
2021/07/31 13:27:30;;;;;;;0.20;0.20;;;22.60;84.00;;;;;;5033548;28;20473;-85
2021/07/31 13:29:58;;;;;;;0.27;0.27;;;22.60;77.70;;;;;;5036113;28;20940;-85
2021/07/31 13:32:24;;;;;;;0.23;0.23;;;22.70;76.10;;;;;;5036128;28;20471;-85
2021/07/31 13:34:51;;;;;;;0.20;0.20;;;23.10;80.20;;;;;;5036274;28;20464;-85
2021/07/31 13:37:24;;;;;;;0.30;0.30;;;23.10;77.80;;;;;;5036408;28;20488;-85
2021/07/31 13:39:52;;;;;;;0.40;0.40;;;23.10;79.60;;;;;;5035994;28;20476;-85
2021/07/31 13:42:19;;;;;;;0.30;0.30;;;23.10;77.70;;;;;;5036424;28;20466;-84
2021/07/31 13:44:48;;;;;;;0.20;0.20;;;23.30;79.80;;;;;;5035973;28;20467;-84
2021/07/31 13:47:17;;;;;;;0.40;0.40;;;23.40;80.80;;;;;;5036187;28;20484;-84
2021/07/31 13:49:44;;;;;;;0.20;0.20;;;23.60;80.30;;;;;;5036130;28;20464;-85
2021/07/31 13:52:10;;;;;;;0.30;0.30;;;23.50;77.30;;;;;;5035826;28;20465;-84
2021/07/31 13:54:37;;;;;;;0.20;0.20;;;23.60;79.80;;;;;;5035986;28;20563;-85
2021/07/31 13:57:04;;;;;;;0.30;0.30;;;23.50;76.70;;;;;;5035751;28;20493;-83
2021/07/31 13:59:33;;;;;;;0.20;0.20;;;23.50;77.60;;;;;;5035845;28;20492;-85
2021/07/31 14:02:01;;;;;;;0.30;0.30;;;23.50;77.50;;;;;;5035634;28;20464;-84
2021/07/31 14:04:30;;;;;;;0.20;0.20;;;23.70;79.80;;;;;;5038546;28;20465;-81
2021/07/31 14:06:57;;;;;;;0.30;0.30;;;23.70;76.90;;;;;;5037934;28;20857;-82
2021/07/31 14:09:24;;;;;;;0.23;0.20;;;23.60;76.30;;;;;;5037425;28;20464;-82
2021/07/31 14:11:50;;;;;;;0.30;0.30;;;23.70;78.20;;;;;;5036698;28;20965;-82
2021/07/31 14:14:17;;;;;;;0.20;0.20;;;23.70;78.20;;;;;;5035854;28;20460;-84
2021/07/31 14:16:44;;;;;;;0.30;0.30;;;23.70;76.70;;;;;;5035438;28;20473;-84
2021/07/31 14:19:12;;;;;;;0.30;0.30;;;23.70;76.70;;;;;;5035504;28;20456;-83
2021/07/31 14:21:40;;;;;;;0.20;0.20;;;23.50;74.20;;;;;;5035622;28;21008;-85
2021/07/31 14:24:07;;;;;;;0.20;0.20;;;23.60;77.20;;;;;;5035634;28;20465;-85
2021/07/31 14:26:34;;;;;;;0.30;0.30;;;23.40;77.50;;;;;;5035096;28;20460;-85